sensor_id;sensor_type;location;lat;lon;timestamp;P1;durP1;ratioP1;P2;durP2;ratioP2
60502;SDS011;51448;51.660;5.824;2024-02-21T00:02:21;25.15;;;10.82;;
60502;SDS011;51448;51.660;5.824;2024-02-21T00:04:49;23.33;;;8.98;;
60502;SDS011;51448;51.660;5.824;2024-02-21T00:07:16;26.92;;;10.48;;
60502;SDS011;51448;51.660;5.824;2024-02-21T00:09:44;22.30;;;10.55;;
60502;SDS011;51448;51.660;5.824;2024-02-21T00:12:12;22.35;;;9.15;;
60502;SDS011;51448;51.660;5.824;2024-02-21T00:14:41;20.92;;;10.05;;
60502;SDS011;51448;51.660;5.824;2024-02-21T00:17:08;29.63;;;10.15;;
60502;SDS011;51448;51.660;5.824;2024-02-21T00:19:36;16.80;;;8.73;;
60502;SDS011;51448;51.660;5.824;2024-02-21T00:22:03;26.33;;;10.25;;
60502;SDS011;51448;51.660;5.824;2024-02-21T00:24:31;18.17;;;8.98;;
60502;SDS011;51448;51.660;5.824;2024-02-21T00:26:59;21.85;;;10.20;;
60502;SDS011;51448;51.660;5.824;2024-02-21T00:29:26;23.27;;;10.50;;
60502;SDS011;51448;51.660;5.824;2024-02-21T00:31:54;24.80;;;9.77;;
60502;SDS011;51448;51.660;5.824;2024-02-21T00:34:22;22.38;;;10.13;;
60502;SDS011;51448;51.660;5.824;2024-02-21T00:36:51;22.70;;;9.52;;
60502;SDS011;51448;51.660;5.824;2024-02-21T00:39:19;21.90;;;10.02;;
60502;SDS011;51448;51.660;5.824;2024-02-21T00:41:46;23.25;;;10.32;;
60502;SDS011;51448;51.660;5.824;2024-02-21T00:44:14;26.20;;;11.05;;
60502;SDS011;51448;51.660;5.824;2024-02-21T00:46:42;22.42;;;9.32;;
60502;SDS011;51448;51.660;5.824;2024-02-21T00:49:09;19.00;;;9.68;;
60502;SDS011;51448;51.660;5.824;2024-02-21T00:51:37;17.23;;;9.65;;
60502;SDS011;51448;51.660;5.824;2024-02-21T00:54:04;20.92;;;9.55;;
60502;SDS011;51448;51.660;5.824;2024-02-21T00:56:33;25.10;;;9.88;;
60502;SDS011;51448;51.660;5.824;2024-02-21T00:59:01;22.13;;;9.07;;
60502;SDS011;51448;51.660;5.824;2024-02-21T01:01:28;26.13;;;10.68;;
60502;SDS011;51448;51.660;5.824;2024-02-21T01:03:56;23.60;;;9.30;;
60502;SDS011;51448;51.660;5.824;2024-02-21T01:06:24;20.90;;;9.45;;
60502;SDS011;51448;51.660;5.824;2024-02-21T01:08:52;22.33;;;9.75;;
60502;SDS011;51448;51.660;5.824;2024-02-21T01:11:19;27.73;;;9.82;;
60502;SDS011;51448;51.660;5.824;2024-02-21T01:13:47;20.45;;;9.25;;
60502;SDS011;51448;51.660;5.824;2024-02-21T01:16:15;19.55;;;9.65;;
60502;SDS011;51448;51.660;5.824;2024-02-21T01:18:42;22.85;;;10.18;;
60502;SDS011;51448;51.660;5.824;2024-02-21T01:21:10;21.83;;;9.13;;
60502;SDS011;51448;51.660;5.824;2024-02-21T01:23:38;19.50;;;9.95;;
60502;SDS011;51448;51.660;5.824;2024-02-21T01:26:05;25.13;;;9.65;;
60502;SDS011;51448;51.660;5.824;2024-02-21T01:28:35;22.70;;;9.15;;
60502;SDS011;51448;51.660;5.824;2024-02-21T01:31:04;17.73;;;8.68;;
60502;SDS011;51448;51.660;5.824;2024-02-21T01:33:32;19.02;;;10.75;;
60502;SDS011;51448;51.660;5.824;2024-02-21T01:36:02;21.92;;;9.02;;
60502;SDS011;51448;51.660;5.824;2024-02-21T01:38:30;21.23;;;8.57;;
60502;SDS011;51448;51.660;5.824;2024-02-21T01:40:59;17.83;;;8.88;;
60502;SDS011;51448;51.660;5.824;2024-02-21T01:43:27;20.63;;;9.15;;
60502;SDS011;51448;51.660;5.824;2024-02-21T01:45:55;18.25;;;8.35;;
60502;SDS011;51448;51.660;5.824;2024-02-21T01:48:23;20.33;;;9.23;;
60502;SDS011;51448;51.660;5.824;2024-02-21T01:50:54;26.60;;;9.43;;
60502;SDS011;51448;51.660;5.824;2024-02-21T01:53:23;17.63;;;8.50;;
60502;SDS011;51448;51.660;5.824;2024-02-21T01:56:01;17.67;;;8.75;;
60502;SDS011;51448;51.660;5.824;2024-02-21T01:58:30;17.33;;;9.15;;
60502;SDS011;51448;51.660;5.824;2024-02-21T02:00:59;18.75;;;8.00;;
60502;SDS011;51448;51.660;5.824;2024-02-21T02:03:27;23.35;;;9.50;;
60502;SDS011;51448;51.660;5.824;2024-02-21T02:05:55;22.27;;;8.20;;
60502;SDS011;51448;51.660;5.824;2024-02-21T02:08:23;20.85;;;8.02;;
60502;SDS011;51448;51.660;5.824;2024-02-21T02:10:51;17.45;;;8.30;;
60502;SDS011;51448;51.660;5.824;2024-02-21T02:13:19;19.50;;;8.52;;
60502;SDS011;51448;51.660;5.824;2024-02-21T02:15:47;17.63;;;8.38;;
60502;SDS011;51448;51.660;5.824;2024-02-21T02:18:17;17.98;;;7.55;;
60502;SDS011;51448;51.660;5.824;2024-02-21T02:20:47;19.25;;;7.85;;
60502;SDS011;51448;51.660;5.824;2024-02-21T02:26:14;16.50;;;7.05;;
60502;SDS011;51448;51.660;5.824;2024-02-21T02:28:43;22.45;;;7.70;;
60502;SDS011;51448;51.660;5.824;2024-02-21T02:31:11;16.80;;;7.07;;
60502;SDS011;51448;51.660;5.824;2024-02-21T02:33:39;14.50;;;6.10;;
60502;SDS011;51448;51.660;5.824;2024-02-21T02:36:07;17.13;;;6.10;;
60502;SDS011;51448;51.660;5.824;2024-02-21T02:38:34;17.27;;;7.07;;
60502;SDS011;51448;51.660;5.824;2024-02-21T02:41:02;12.35;;;6.85;;
60502;SDS011;51448;51.660;5.824;2024-02-21T02:43:30;19.92;;;8.07;;
60502;SDS011;51448;51.660;5.824;2024-02-21T02:45:58;16.27;;;6.20;;
60502;SDS011;51448;51.660;5.824;2024-02-21T02:48:26;21.27;;;7.38;;
60502;SDS011;51448;51.660;5.824;2024-02-21T02:50:57;16.65;;;6.32;;
60502;SDS011;51448;51.660;5.824;2024-02-21T02:53:24;16.67;;;6.07;;
60502;SDS011;51448;51.660;5.824;2024-02-21T02:55:52;13.68;;;6.90;;
60502;SDS011;51448;51.660;5.824;2024-02-21T02:58:20;18.42;;;6.50;;
60502;SDS011;51448;51.660;5.824;2024-02-21T03:00:48;11.40;;;5.78;;
60502;SDS011;51448;51.660;5.824;2024-02-21T03:03:16;15.38;;;5.07;;
60502;SDS011;51448;51.660;5.824;2024-02-21T03:05:44;10.43;;;5.05;;
60502;SDS011;51448;51.660;5.824;2024-02-21T03:08:13;12.85;;;6.45;;
60502;SDS011;51448;51.660;5.824;2024-02-21T03:10:40;13.30;;;5.50;;
60502;SDS011;51448;51.660;5.824;2024-02-21T03:13:08;12.20;;;5.53;;
60502;SDS011;51448;51.660;5.824;2024-02-21T03:15:36;11.25;;;5.30;;
60502;SDS011;51448;51.660;5.824;2024-02-21T03:18:04;12.32;;;5.65;;
60502;SDS011;51448;51.660;5.824;2024-02-21T03:20:31;12.32;;;5.05;;
60502;SDS011;51448;51.660;5.824;2024-02-21T03:22:59;11.40;;;5.22;;
60502;SDS011;51448;51.660;5.824;2024-02-21T03:25:27;9.90;;;5.40;;
60502;SDS011;51448;51.660;5.824;2024-02-21T03:27:54;17.63;;;5.40;;
60502;SDS011;51448;51.660;5.824;2024-02-21T03:30:22;12.73;;;5.93;;
60502;SDS011;51448;51.660;5.824;2024-02-21T03:32:50;12.10;;;5.32;;
60502;SDS011;51448;51.660;5.824;2024-02-21T03:35:23;15.48;;;5.60;;
60502;SDS011;51448;51.660;5.824;2024-02-21T03:37:54;13.30;;;6.10;;
60502;SDS011;51448;51.660;5.824;2024-02-21T03:40:26;15.52;;;6.95;;
60502;SDS011;51448;51.660;5.824;2024-02-21T03:42:54;13.40;;;5.65;;
60502;SDS011;51448;51.660;5.824;2024-02-21T03:45:22;11.70;;;4.70;;
60502;SDS011;51448;51.660;5.824;2024-02-21T03:47:50;12.90;;;5.85;;
60502;SDS011;51448;51.660;5.824;2024-02-21T03:50:17;18.90;;;6.35;;
60502;SDS011;51448;51.660;5.824;2024-02-21T03:52:46;13.23;;;5.13;;
60502;SDS011;51448;51.660;5.824;2024-02-21T03:55:14;14.10;;;5.38;;
60502;SDS011;51448;51.660;5.824;2024-02-21T03:57:44;16.17;;;5.35;;
60502;SDS011;51448;51.660;5.824;2024-02-21T04:00:14;10.27;;;5.70;;
60502;SDS011;51448;51.660;5.824;2024-02-21T04:02:42;16.15;;;7.00;;
60502;SDS011;51448;51.660;5.824;2024-02-21T04:05:10;12.48;;;6.05;;
60502;SDS011;51448;51.660;5.824;2024-02-21T04:07:38;15.52;;;5.63;;
60502;SDS011;51448;51.660;5.824;2024-02-21T04:10:06;10.23;;;4.90;;
60502;SDS011;51448;51.660;5.824;2024-02-21T04:12:35;16.95;;;5.70;;
60502;SDS011;51448;51.660;5.824;2024-02-21T04:15:02;19.38;;;4.95;;
60502;SDS011;51448;51.660;5.824;2024-02-21T04:17:30;14.57;;;5.20;;
60502;SDS011;51448;51.660;5.824;2024-02-21T04:20:04;7.80;;;4.50;;
60502;SDS011;51448;51.660;5.824;2024-02-21T04:22:38;10.40;;;5.35;;
60502;SDS011;51448;51.660;5.824;2024-02-21T04:25:09;13.02;;;6.22;;
60502;SDS011;51448;51.660;5.824;2024-02-21T04:27:38;15.85;;;5.25;;
60502;SDS011;51448;51.660;5.824;2024-02-21T04:30:06;13.93;;;5.65;;
60502;SDS011;51448;51.660;5.824;2024-02-21T04:32:36;9.63;;;5.13;;
60502;SDS011;51448;51.660;5.824;2024-02-21T04:35:04;13.90;;;5.30;;
60502;SDS011;51448;51.660;5.824;2024-02-21T04:37:32;9.35;;;5.25;;
60502;SDS011;51448;51.660;5.824;2024-02-21T04:40:00;12.15;;;5.18;;
60502;SDS011;51448;51.660;5.824;2024-02-21T04:42:28;10.00;;;4.97;;
60502;SDS011;51448;51.660;5.824;2024-02-21T04:44:56;9.70;;;5.50;;
60502;SDS011;51448;51.660;5.824;2024-02-21T04:47:23;10.95;;;5.60;;
60502;SDS011;51448;51.660;5.824;2024-02-21T04:49:55;12.95;;;5.07;;
60502;SDS011;51448;51.660;5.824;2024-02-21T04:52:23;11.43;;;6.15;;
60502;SDS011;51448;51.660;5.824;2024-02-21T04:54:50;10.30;;;5.20;;
60502;SDS011;51448;51.660;5.824;2024-02-21T04:57:18;13.90;;;6.90;;
60502;SDS011;51448;51.660;5.824;2024-02-21T04:59:46;11.23;;;5.45;;
60502;SDS011;51448;51.660;5.824;2024-02-21T05:02:15;10.98;;;5.32;;
60502;SDS011;51448;51.660;5.824;2024-02-21T05:04:42;11.93;;;6.13;;
60502;SDS011;51448;51.660;5.824;2024-02-21T05:07:11;15.43;;;5.78;;
60502;SDS011;51448;51.660;5.824;2024-02-21T05:09:39;14.00;;;6.93;;
60502;SDS011;51448;51.660;5.824;2024-02-21T05:12:12;17.63;;;8.27;;
60502;SDS011;51448;51.660;5.824;2024-02-21T05:14:40;15.70;;;7.53;;
60502;SDS011;51448;51.660;5.824;2024-02-21T05:17:07;13.35;;;6.75;;
60502;SDS011;51448;51.660;5.824;2024-02-21T05:19:35;17.40;;;7.53;;
60502;SDS011;51448;51.660;5.824;2024-02-21T05:22:03;15.13;;;6.60;;
60502;SDS011;51448;51.660;5.824;2024-02-21T05:24:31;13.93;;;7.07;;
60502;SDS011;51448;51.660;5.824;2024-02-21T05:26:58;15.77;;;7.38;;
60502;SDS011;51448;51.660;5.824;2024-02-21T05:29:26;20.33;;;8.48;;
60502;SDS011;51448;51.660;5.824;2024-02-21T05:34:21;17.67;;;7.32;;
60502;SDS011;51448;51.660;5.824;2024-02-21T05:36:49;19.08;;;8.20;;
60502;SDS011;51448;51.660;5.824;2024-02-21T05:39:17;17.15;;;7.97;;
60502;SDS011;51448;51.660;5.824;2024-02-21T05:41:45;15.30;;;7.60;;
60502;SDS011;51448;51.660;5.824;2024-02-21T05:44:13;21.00;;;8.20;;
60502;SDS011;51448;51.660;5.824;2024-02-21T05:46:41;15.52;;;7.28;;
60502;SDS011;51448;51.660;5.824;2024-02-21T05:49:09;19.50;;;7.70;;
60502;SDS011;51448;51.660;5.824;2024-02-21T05:51:37;18.25;;;8.30;;
60502;SDS011;51448;51.660;5.824;2024-02-21T05:54:05;21.75;;;8.80;;
60502;SDS011;51448;51.660;5.824;2024-02-21T05:56:34;18.98;;;9.73;;
60502;SDS011;51448;51.660;5.824;2024-02-21T05:59:02;16.02;;;8.15;;
60502;SDS011;51448;51.660;5.824;2024-02-21T06:01:29;15.88;;;7.20;;
60502;SDS011;51448;51.660;5.824;2024-02-21T06:03:57;17.35;;;8.13;;
60502;SDS011;51448;51.660;5.824;2024-02-21T06:06:25;22.85;;;8.60;;
60502;SDS011;51448;51.660;5.824;2024-02-21T06:08:52;20.92;;;8.90;;
60502;SDS011;51448;51.660;5.824;2024-02-21T06:11:20;19.83;;;8.48;;
60502;SDS011;51448;51.660;5.824;2024-02-21T06:13:48;17.38;;;7.97;;
60502;SDS011;51448;51.660;5.824;2024-02-21T06:16:15;17.45;;;7.72;;
60502;SDS011;51448;51.660;5.824;2024-02-21T06:18:43;18.15;;;8.70;;
60502;SDS011;51448;51.660;5.824;2024-02-21T06:21:11;19.00;;;9.25;;
60502;SDS011;51448;51.660;5.824;2024-02-21T06:23:50;15.68;;;8.02;;
60502;SDS011;51448;51.660;5.824;2024-02-21T06:26:17;19.52;;;9.02;;
60502;SDS011;51448;51.660;5.824;2024-02-21T06:28:48;17.45;;;8.88;;
60502;SDS011;51448;51.660;5.824;2024-02-21T06:31:16;21.73;;;8.57;;
60502;SDS011;51448;51.660;5.824;2024-02-21T06:33:45;17.92;;;8.57;;
60502;SDS011;51448;51.660;5.824;2024-02-21T06:36:13;16.13;;;8.00;;
60502;SDS011;51448;51.660;5.824;2024-02-21T06:38:40;18.48;;;9.20;;
60502;SDS011;51448;51.660;5.824;2024-02-21T06:41:15;17.33;;;7.72;;
60502;SDS011;51448;51.660;5.824;2024-02-21T06:43:44;18.33;;;8.05;;
60502;SDS011;51448;51.660;5.824;2024-02-21T06:46:23;17.58;;;9.65;;
60502;SDS011;51448;51.660;5.824;2024-02-21T06:48:56;18.70;;;8.70;;
60502;SDS011;51448;51.660;5.824;2024-02-21T06:51:26;17.92;;;8.88;;
60502;SDS011;51448;51.660;5.824;2024-02-21T06:53:55;16.27;;;7.70;;
60502;SDS011;51448;51.660;5.824;2024-02-21T06:56:23;19.38;;;7.95;;
60502;SDS011;51448;51.660;5.824;2024-02-21T06:58:59;15.52;;;8.43;;
60502;SDS011;51448;51.660;5.824;2024-02-21T07:01:27;16.00;;;7.90;;
60502;SDS011;51448;51.660;5.824;2024-02-21T07:03:55;21.95;;;8.88;;
60502;SDS011;51448;51.660;5.824;2024-02-21T07:06:23;19.83;;;7.80;;
60502;SDS011;51448;51.660;5.824;2024-02-21T07:08:51;17.17;;;7.70;;
60502;SDS011;51448;51.660;5.824;2024-02-21T07:11:19;17.92;;;7.93;;
60502;SDS011;51448;51.660;5.824;2024-02-21T07:13:46;13.30;;;7.97;;
60502;SDS011;51448;51.660;5.824;2024-02-21T07:16:14;16.48;;;7.65;;
60502;SDS011;51448;51.660;5.824;2024-02-21T07:18:49;15.20;;;8.23;;
60502;SDS011;51448;51.660;5.824;2024-02-21T07:21:17;14.95;;;8.40;;
60502;SDS011;51448;51.660;5.824;2024-02-21T07:23:44;13.30;;;7.70;;
60502;SDS011;51448;51.660;5.824;2024-02-21T07:26:12;15.57;;;8.65;;
60502;SDS011;51448;51.660;5.824;2024-02-21T07:29:07;17.27;;;7.38;;
60502;SDS011;51448;51.660;5.824;2024-02-21T07:31:42;18.52;;;10.13;;
60502;SDS011;51448;51.660;5.824;2024-02-21T07:34:11;17.13;;;8.27;;
60502;SDS011;51448;51.660;5.824;2024-02-21T07:36:38;18.08;;;9.25;;
60502;SDS011;51448;51.660;5.824;2024-02-21T07:39:06;15.05;;;8.15;;
60502;SDS011;51448;51.660;5.824;2024-02-21T07:41:33;18.80;;;8.90;;
60502;SDS011;51448;51.660;5.824;2024-02-21T07:44:01;18.23;;;9.15;;
60502;SDS011;51448;51.660;5.824;2024-02-21T07:46:30;18.13;;;9.20;;
60502;SDS011;51448;51.660;5.824;2024-02-21T07:49:00;19.25;;;8.57;;
60502;SDS011;51448;51.660;5.824;2024-02-21T07:51:28;20.77;;;9.95;;
60502;SDS011;51448;51.660;5.824;2024-02-21T07:53:55;21.27;;;9.10;;
60502;SDS011;51448;51.660;5.824;2024-02-21T07:56:23;22.38;;;9.90;;
60502;SDS011;51448;51.660;5.824;2024-02-21T07:58:54;16.35;;;8.02;;
60502;SDS011;51448;51.660;5.824;2024-02-21T08:01:22;18.73;;;10.40;;
60502;SDS011;51448;51.660;5.824;2024-02-21T08:03:49;13.60;;;8.77;;
60502;SDS011;51448;51.660;5.824;2024-02-21T08:06:17;18.67;;;10.32;;
60502;SDS011;51448;51.660;5.824;2024-02-21T08:08:45;19.48;;;8.63;;
60502;SDS011;51448;51.660;5.824;2024-02-21T08:11:12;20.70;;;9.57;;
60502;SDS011;51448;51.660;5.824;2024-02-21T08:13:40;20.90;;;9.43;;
60502;SDS011;51448;51.660;5.824;2024-02-21T08:16:08;21.55;;;9.55;;
60502;SDS011;51448;51.660;5.824;2024-02-21T08:18:35;15.05;;;8.45;;
60502;SDS011;51448;51.660;5.824;2024-02-21T08:21:06;14.52;;;8.43;;
60502;SDS011;51448;51.660;5.824;2024-02-21T08:23:33;17.48;;;7.85;;
60502;SDS011;51448;51.660;5.824;2024-02-21T08:26:05;17.55;;;8.60;;
60502;SDS011;51448;51.660;5.824;2024-02-21T08:28:32;16.92;;;9.20;;
60502;SDS011;51448;51.660;5.824;2024-02-21T08:31:00;14.57;;;7.97;;
60502;SDS011;51448;51.660;5.824;2024-02-21T08:33:28;15.32;;;7.82;;
60502;SDS011;51448;51.660;5.824;2024-02-21T08:35:57;19.48;;;7.97;;
60502;SDS011;51448;51.660;5.824;2024-02-21T08:38:24;16.42;;;7.95;;
60502;SDS011;51448;51.660;5.824;2024-02-21T08:40:52;13.90;;;7.25;;
60502;SDS011;51448;51.660;5.824;2024-02-21T08:43:20;13.57;;;7.78;;
60502;SDS011;51448;51.660;5.824;2024-02-21T08:45:47;13.00;;;7.57;;
60502;SDS011;51448;51.660;5.824;2024-02-21T08:48:15;13.48;;;7.38;;
60502;SDS011;51448;51.660;5.824;2024-02-21T08:50:42;11.07;;;6.88;;
60502;SDS011;51448;51.660;5.824;2024-02-21T08:53:10;14.32;;;7.35;;
60502;SDS011;51448;51.660;5.824;2024-02-21T08:55:38;11.27;;;6.57;;
60502;SDS011;51448;51.660;5.824;2024-02-21T08:58:06;11.05;;;6.57;;
60502;SDS011;51448;51.660;5.824;2024-02-21T09:00:33;13.45;;;7.28;;
60502;SDS011;51448;51.660;5.824;2024-02-21T09:03:01;10.55;;;5.93;;
60502;SDS011;51448;51.660;5.824;2024-02-21T09:05:28;9.93;;;6.07;;
60502;SDS011;51448;51.660;5.824;2024-02-21T09:07:56;13.55;;;6.40;;
60502;SDS011;51448;51.660;5.824;2024-02-21T09:10:24;12.65;;;6.28;;
60502;SDS011;51448;51.660;5.824;2024-02-21T09:12:52;10.85;;;6.30;;
60502;SDS011;51448;51.660;5.824;2024-02-21T09:15:20;13.25;;;6.55;;
60502;SDS011;51448;51.660;5.824;2024-02-21T09:17:50;9.52;;;5.85;;
60502;SDS011;51448;51.660;5.824;2024-02-21T09:20:17;14.00;;;6.55;;
60502;SDS011;51448;51.660;5.824;2024-02-21T09:22:45;9.75;;;6.35;;
60502;SDS011;51448;51.660;5.824;2024-02-21T09:25:13;9.38;;;5.57;;
60502;SDS011;51448;51.660;5.824;2024-02-21T09:27:40;11.93;;;5.45;;
60502;SDS011;51448;51.660;5.824;2024-02-21T09:30:08;8.27;;;5.40;;
60502;SDS011;51448;51.660;5.824;2024-02-21T09:32:37;9.73;;;5.38;;
60502;SDS011;51448;51.660;5.824;2024-02-21T09:35:06;8.57;;;5.28;;
60502;SDS011;51448;51.660;5.824;2024-02-21T09:37:34;7.00;;;5.25;;
60502;SDS011;51448;51.660;5.824;2024-02-21T09:40:01;7.70;;;4.85;;
60502;SDS011;51448;51.660;5.824;2024-02-21T09:42:39;11.73;;;5.85;;
60502;SDS011;51448;51.660;5.824;2024-02-21T09:45:18;8.07;;;4.93;;
60502;SDS011;51448;51.660;5.824;2024-02-21T09:48:06;8.68;;;4.75;;
60502;SDS011;51448;51.660;5.824;2024-02-21T09:50:48;11.40;;;5.47;;
60502;SDS011;51448;51.660;5.824;2024-02-21T09:53:17;8.82;;;5.45;;
60502;SDS011;51448;51.660;5.824;2024-02-21T09:55:46;7.75;;;5.07;;
60502;SDS011;51448;51.660;5.824;2024-02-21T09:58:15;9.48;;;6.15;;
60502;SDS011;51448;51.660;5.824;2024-02-21T10:00:43;8.45;;;6.30;;
60502;SDS011;51448;51.660;5.824;2024-02-21T10:03:11;11.52;;;6.68;;
60502;SDS011;51448;51.660;5.824;2024-02-21T10:05:45;13.13;;;7.15;;
60502;SDS011;51448;51.660;5.824;2024-02-21T10:08:17;15.00;;;7.20;;
60502;SDS011;51448;51.660;5.824;2024-02-21T10:10:46;10.52;;;6.90;;
60502;SDS011;51448;51.660;5.824;2024-02-21T10:13:24;10.20;;;6.40;;
60502;SDS011;51448;51.660;5.824;2024-02-21T10:16:04;10.05;;;6.60;;
60502;SDS011;51448;51.660;5.824;2024-02-21T10:18:36;9.02;;;6.18;;
60502;SDS011;51448;51.660;5.824;2024-02-21T10:21:05;9.95;;;6.07;;
60502;SDS011;51448;51.660;5.824;2024-02-21T10:24:09;10.98;;;5.90;;
60502;SDS011;51448;51.660;5.824;2024-02-21T10:26:28;10.57;;;6.80;;
60502;SDS011;51448;51.660;5.824;2024-02-21T10:28:56;15.05;;;6.18;;
60502;SDS011;51448;51.660;5.824;2024-02-21T10:31:25;12.00;;;6.40;;
60502;SDS011;51448;51.660;5.824;2024-02-21T10:33:56;13.10;;;5.68;;
60502;SDS011;51448;51.660;5.824;2024-02-21T10:36:26;14.40;;;6.82;;
60502;SDS011;51448;51.660;5.824;2024-02-21T10:38:54;10.50;;;5.97;;
60502;SDS011;51448;51.660;5.824;2024-02-21T10:41:23;10.40;;;5.22;;
60502;SDS011;51448;51.660;5.824;2024-02-21T10:43:52;10.73;;;5.70;;
60502;SDS011;51448;51.660;5.824;2024-02-21T10:46:23;13.23;;;5.90;;
60502;SDS011;51448;51.660;5.824;2024-02-21T10:49:01;10.23;;;5.72;;
60502;SDS011;51448;51.660;5.824;2024-02-21T10:51:37;11.93;;;5.72;;
60502;SDS011;51448;51.660;5.824;2024-02-21T10:57:19;10.63;;;6.38;;
60502;SDS011;51448;51.660;5.824;2024-02-21T10:59:49;9.25;;;5.43;;
60502;SDS011;51448;51.660;5.824;2024-02-21T11:02:17;14.65;;;5.95;;
60502;SDS011;51448;51.660;5.824;2024-02-21T11:04:46;17.63;;;6.38;;
60502;SDS011;51448;51.660;5.824;2024-02-21T11:07:17;8.90;;;6.20;;
60502;SDS011;51448;51.660;5.824;2024-02-21T11:09:52;11.15;;;5.63;;
60502;SDS011;51448;51.660;5.824;2024-02-21T11:12:24;9.73;;;6.10;;
60502;SDS011;51448;51.660;5.824;2024-02-21T11:15:06;10.70;;;5.57;;
60502;SDS011;51448;51.660;5.824;2024-02-21T11:17:35;8.95;;;4.38;;
60502;SDS011;51448;51.660;5.824;2024-02-21T11:20:16;11.65;;;5.38;;
60502;SDS011;51448;51.660;5.824;2024-02-21T11:22:44;10.90;;;5.57;;
60502;SDS011;51448;51.660;5.824;2024-02-21T11:25:11;9.60;;;4.93;;
60502;SDS011;51448;51.660;5.824;2024-02-21T11:27:45;11.52;;;5.30;;
60502;SDS011;51448;51.660;5.824;2024-02-21T11:30:13;9.00;;;5.13;;
60502;SDS011;51448;51.660;5.824;2024-02-21T11:36:03;10.88;;;4.75;;
60502;SDS011;51448;51.660;5.824;2024-02-21T11:39:07;7.85;;;5.05;;
60502;SDS011;51448;51.660;5.824;2024-02-21T11:41:38;11.13;;;4.85;;
60502;SDS011;51448;51.660;5.824;2024-02-21T11:44:06;9.70;;;4.10;;
60502;SDS011;51448;51.660;5.824;2024-02-21T11:46:34;8.82;;;4.38;;
60502;SDS011;51448;51.660;5.824;2024-02-21T11:49:02;10.05;;;4.43;;
60502;SDS011;51448;51.660;5.824;2024-02-21T11:51:30;7.60;;;4.35;;
60502;SDS011;51448;51.660;5.824;2024-02-21T11:53:58;12.88;;;4.50;;
60502;SDS011;51448;51.660;5.824;2024-02-21T11:56:28;7.68;;;4.43;;
60502;SDS011;51448;51.660;5.824;2024-02-21T11:58:58;8.80;;;4.20;;
60502;SDS011;51448;51.660;5.824;2024-02-21T12:01:26;12.55;;;4.72;;
60502;SDS011;51448;51.660;5.824;2024-02-21T12:03:54;8.85;;;4.85;;
60502;SDS011;51448;51.660;5.824;2024-02-21T12:06:23;10.45;;;4.78;;
60502;SDS011;51448;51.660;5.824;2024-02-21T12:08:51;10.27;;;5.30;;
60502;SDS011;51448;51.660;5.824;2024-02-21T12:11:20;11.38;;;4.50;;
60502;SDS011;51448;51.660;5.824;2024-02-21T12:13:59;7.60;;;4.20;;
60502;SDS011;51448;51.660;5.824;2024-02-21T12:19:00;11.73;;;4.55;;
60502;SDS011;51448;51.660;5.824;2024-02-21T12:21:31;11.95;;;4.03;;
60502;SDS011;51448;51.660;5.824;2024-02-21T12:24:17;9.82;;;4.45;;
60502;SDS011;51448;51.660;5.824;2024-02-21T12:26:50;10.50;;;4.03;;
60502;SDS011;51448;51.660;5.824;2024-02-21T12:29:22;11.75;;;4.13;;
60502;SDS011;51448;51.660;5.824;2024-02-21T12:31:52;12.52;;;5.05;;
60502;SDS011;51448;51.660;5.824;2024-02-21T12:34:21;12.23;;;4.13;;
60502;SDS011;51448;51.660;5.824;2024-02-21T12:37:04;7.18;;;3.92;;
60502;SDS011;51448;51.660;5.824;2024-02-21T12:39:32;8.45;;;3.60;;
60502;SDS011;51448;51.660;5.824;2024-02-21T12:42:00;15.82;;;4.22;;
60502;SDS011;51448;51.660;5.824;2024-02-21T12:44:27;9.85;;;4.25;;
60502;SDS011;51448;51.660;5.824;2024-02-21T12:46:55;10.13;;;4.50;;
60502;SDS011;51448;51.660;5.824;2024-02-21T12:49:23;9.57;;;3.88;;
60502;SDS011;51448;51.660;5.824;2024-02-21T12:51:51;13.80;;;5.60;;
60502;SDS011;51448;51.660;5.824;2024-02-21T12:54:19;14.05;;;4.57;;
60502;SDS011;51448;51.660;5.824;2024-02-21T12:56:46;11.43;;;4.30;;
60502;SDS011;51448;51.660;5.824;2024-02-21T12:59:14;11.23;;;4.00;;
60502;SDS011;51448;51.660;5.824;2024-02-21T13:01:41;8.95;;;3.90;;
60502;SDS011;51448;51.660;5.824;2024-02-21T13:04:09;7.55;;;4.13;;
60502;SDS011;51448;51.660;5.824;2024-02-21T13:06:39;7.60;;;3.80;;
60502;SDS011;51448;51.660;5.824;2024-02-21T13:09:06;7.20;;;3.75;;
60502;SDS011;51448;51.660;5.824;2024-02-21T13:11:38;8.05;;;3.67;;
60502;SDS011;51448;51.660;5.824;2024-02-21T13:14:07;8.93;;;4.53;;
60502;SDS011;51448;51.660;5.824;2024-02-21T13:16:35;9.15;;;3.97;;
60502;SDS011;51448;51.660;5.824;2024-02-21T13:19:06;10.23;;;3.70;;
60502;SDS011;51448;51.660;5.824;2024-02-21T13:21:35;9.30;;;3.92;;
60502;SDS011;51448;51.660;5.824;2024-02-21T13:24:03;12.63;;;4.60;;
60502;SDS011;51448;51.660;5.824;2024-02-21T13:26:31;8.40;;;4.13;;
60502;SDS011;51448;51.660;5.824;2024-02-21T13:28:59;10.43;;;3.83;;
60502;SDS011;51448;51.660;5.824;2024-02-21T13:31:26;8.38;;;3.55;;
60502;SDS011;51448;51.660;5.824;2024-02-21T13:33:54;6.55;;;3.75;;
60502;SDS011;51448;51.660;5.824;2024-02-21T13:36:22;8.80;;;4.20;;
60502;SDS011;51448;51.660;5.824;2024-02-21T13:38:49;11.10;;;3.85;;
60502;SDS011;51448;51.660;5.824;2024-02-21T13:41:18;9.55;;;3.50;;
60502;SDS011;51448;51.660;5.824;2024-02-21T13:43:46;10.93;;;4.10;;
60502;SDS011;51448;51.660;5.824;2024-02-21T13:46:14;8.57;;;4.05;;
60502;SDS011;51448;51.660;5.824;2024-02-21T13:48:41;11.57;;;4.40;;
60502;SDS011;51448;51.660;5.824;2024-02-21T13:51:09;7.32;;;3.55;;
60502;SDS011;51448;51.660;5.824;2024-02-21T13:53:38;6.85;;;2.95;;
60502;SDS011;51448;51.660;5.824;2024-02-21T13:56:06;6.80;;;3.03;;
60502;SDS011;51448;51.660;5.824;2024-02-21T13:58:36;6.45;;;2.90;;
60502;SDS011;51448;51.660;5.824;2024-02-21T14:01:04;6.88;;;3.00;;
60502;SDS011;51448;51.660;5.824;2024-02-21T14:03:32;6.28;;;3.33;;
60502;SDS011;51448;51.660;5.824;2024-02-21T14:06:00;9.30;;;3.00;;
60502;SDS011;51448;51.660;5.824;2024-02-21T14:08:28;12.00;;;3.53;;
60502;SDS011;51448;51.660;5.824;2024-02-21T14:10:55;8.40;;;3.72;;
60502;SDS011;51448;51.660;5.824;2024-02-21T14:13:23;5.45;;;2.45;;
60502;SDS011;51448;51.660;5.824;2024-02-21T14:15:51;7.25;;;2.60;;
60502;SDS011;51448;51.660;5.824;2024-02-21T14:18:18;6.53;;;3.50;;
60502;SDS011;51448;51.660;5.824;2024-02-21T14:20:46;7.72;;;3.17;;
60502;SDS011;51448;51.660;5.824;2024-02-21T14:23:14;7.30;;;3.22;;
60502;SDS011;51448;51.660;5.824;2024-02-21T14:25:42;9.38;;;2.80;;
60502;SDS011;51448;51.660;5.824;2024-02-21T14:28:09;10.05;;;3.28;;
60502;SDS011;51448;51.660;5.824;2024-02-21T14:30:37;8.82;;;2.60;;
60502;SDS011;51448;51.660;5.824;2024-02-21T14:33:05;6.90;;;2.63;;
60502;SDS011;51448;51.660;5.824;2024-02-21T14:35:33;9.80;;;3.78;;
60502;SDS011;51448;51.660;5.824;2024-02-21T14:38:01;13.40;;;3.30;;
60502;SDS011;51448;51.660;5.824;2024-02-21T14:40:29;9.88;;;2.97;;
60502;SDS011;51448;51.660;5.824;2024-02-21T14:42:57;8.32;;;2.95;;
60502;SDS011;51448;51.660;5.824;2024-02-21T14:45:25;6.22;;;2.83;;
60502;SDS011;51448;51.660;5.824;2024-02-21T14:47:52;12.48;;;3.78;;
60502;SDS011;51448;51.660;5.824;2024-02-21T14:50:20;6.72;;;2.80;;
60502;SDS011;51448;51.660;5.824;2024-02-21T14:52:47;8.02;;;3.75;;
60502;SDS011;51448;51.660;5.824;2024-02-21T14:55:15;8.85;;;3.65;;
60502;SDS011;51448;51.660;5.824;2024-02-21T14:57:43;6.15;;;2.80;;
60502;SDS011;51448;51.660;5.824;2024-02-21T15:00:13;6.00;;;2.40;;
60502;SDS011;51448;51.660;5.824;2024-02-21T15:02:41;4.63;;;3.03;;